createdAt,value
2018-12-12T00:02:59.995Z,2.80
2018-12-12T00:08:05.325Z,2.60
2018-12-12T00:13:09.726Z,3.03
2018-12-12T00:18:14.965Z,2.83
2018-12-12T00:23:20.001Z,2.70
2018-12-12T00:28:24.595Z,2.87
2018-12-12T00:33:29.365Z,2.43
2018-12-12T00:38:33.889Z,3.13
2018-12-12T00:43:38.373Z,3.23
2018-12-12T00:48:43.277Z,2.27
2018-12-12T00:53:48.166Z,2.53
2018-12-12T00:58:51.828Z,3.03
2018-12-12T01:03:56.523Z,1.90
2018-12-12T01:09:00.219Z,3.47
2018-12-12T01:14:05.423Z,3.30
2018-12-12T01:19:09.446Z,2.23
2018-12-12T01:24:13.753Z,1.73
2018-12-12T01:29:18.811Z,2.30
2018-12-12T01:34:24.169Z,2.50
2018-12-12T01:39:29.171Z,2.37
2018-12-12T01:44:34.267Z,2.43
2018-12-12T01:49:38.367Z,2.20
2018-12-12T01:54:43.440Z,1.90
2018-12-12T01:59:48.248Z,2.00
2018-12-12T02:04:54.470Z,1.93
2018-12-12T02:09:59.669Z,2.10
2018-12-12T02:15:05.052Z,2.40
2018-12-12T02:20:08.478Z,2.57
2018-12-12T02:25:12.235Z,2.60
2018-12-12T02:30:15.867Z,1.67
2018-12-12T02:35:19.462Z,2.23
2018-12-12T02:40:24.550Z,2.93
2018-12-12T02:45:29.060Z,2.47
2018-12-12T02:50:33.777Z,1.50
2018-12-12T02:55:38.677Z,2.10
2018-12-12T03:00:44.147Z,1.97
2018-12-12T03:05:48.931Z,2.07
2018-12-12T03:10:52.905Z,1.33
2018-12-12T03:15:57.271Z,1.73
2018-12-12T03:21:01.967Z,2.00
2018-12-12T03:26:06.843Z,1.90
2018-12-12T03:31:11.463Z,1.97
2018-12-12T03:36:17.965Z,1.03
2018-12-12T03:41:22.671Z,2.10
2018-12-12T03:46:27.376Z,2.27
2018-12-12T03:51:32.205Z,2.53
2018-12-12T03:56:35.908Z,1.67
2018-12-12T04:01:40.495Z,2.10
2018-12-12T04:06:45.400Z,2.27
2018-12-12T04:11:50.122Z,1.73
2018-12-12T04:16:54.590Z,1.63
2018-12-12T04:21:59.500Z,1.40
2018-12-12T04:27:03.220Z,1.80
2018-12-12T04:32:06.825Z,1.70
2018-12-12T04:37:11.821Z,1.53
2018-12-12T04:42:16.749Z,2.80
2018-12-12T04:47:21.857Z,2.00
2018-12-12T04:52:26.517Z,2.13
2018-12-12T04:57:31.588Z,2.23
2018-12-12T05:02:36.215Z,2.10
2018-12-12T05:07:41.011Z,1.70
2018-12-12T05:12:45.847Z,2.53
2018-12-12T05:17:50.746Z,1.80
2018-12-12T05:22:54.334Z,1.20
2018-12-12T05:27:59.361Z,1.77
2018-12-12T05:33:04.015Z,1.40
2018-12-12T05:38:08.525Z,2.03
2018-12-12T05:43:12.190Z,1.03
2018-12-12T05:48:17.323Z,1.67
2018-12-12T05:53:21.946Z,1.80
2018-12-12T05:58:27.524Z,2.70
2018-12-12T06:03:33.720Z,1.77
2018-12-12T06:08:39.607Z,1.87
2018-12-12T06:13:44.668Z,1.30
2018-12-12T06:18:52.966Z,2.40
2018-12-12T06:24:00.040Z,2.00
2018-12-12T06:29:05.081Z,1.50
2018-12-12T06:34:09.717Z,1.90
2018-12-12T06:39:13.308Z,2.03
2018-12-12T06:44:18.119Z,2.40
2018-12-12T06:49:23.116Z,1.70
2018-12-12T06:54:27.834Z,2.17
2018-12-12T06:59:33.035Z,2.67
2018-12-12T07:04:38.404Z,2.33
2018-12-12T07:09:42.416Z,1.80
2018-12-12T07:14:47.317Z,3.03
2018-12-12T07:19:50.815Z,1.40
2018-12-12T07:24:55.196Z,1.47
2018-12-12T07:29:59.851Z,1.20
2018-12-12T07:35:04.982Z,1.60
2018-12-12T07:40:08.339Z,1.03
2018-12-12T07:45:12.096Z,1.30
2018-12-12T07:50:15.628Z,1.60
2018-12-12T07:55:19.257Z,1.87
2018-12-12T08:00:22.742Z,1.60
2018-12-12T08:05:26.353Z,1.07
2018-12-12T08:10:30.374Z,0.93
2018-12-12T08:15:34.708Z,1.57
2018-12-12T08:20:38.475Z,1.53
2018-12-12T08:25:42.514Z,2.40
2018-12-12T08:30:46.150Z,1.50
2018-12-12T08:35:50.129Z,1.33
2018-12-12T08:40:55.251Z,3.17
2018-12-12T08:45:58.860Z,1.37
2018-12-12T08:51:03.380Z,1.30
2018-12-12T08:56:08.671Z,1.20
2018-12-12T09:01:14.160Z,1.27
2018-12-12T09:06:19.297Z,1.43
2018-12-12T09:11:24.559Z,1.13
2018-12-12T09:16:29.236Z,1.40
2018-12-12T09:21:33.629Z,1.10
2018-12-12T09:26:37.494Z,1.47
2018-12-12T09:31:42.179Z,1.43
2018-12-12T09:36:47.263Z,1.27
2018-12-12T09:41:51.961Z,1.47
2018-12-12T09:46:55.542Z,1.20
2018-12-12T09:51:59.395Z,1.27
2018-12-12T09:57:04.451Z,1.50
2018-12-12T10:02:08.671Z,1.27
2018-12-12T10:07:17.823Z,2.07
2018-12-12T10:12:22.231Z,1.70
2018-12-12T10:17:27.067Z,2.27
2018-12-12T10:22:31.875Z,1.82
2018-12-12T10:27:36.148Z,1.92
2018-12-12T10:32:41.868Z,2.70
2018-12-12T10:37:48.092Z,2.15
2018-12-12T10:42:52.775Z,3.27
2018-12-12T10:47:57.659Z,4.35
2018-12-12T10:53:02.566Z,3.27
2018-12-12T10:58:06.890Z,3.77
2018-12-12T11:03:17.610Z,2.65
2018-12-12T11:08:21.133Z,2.20
2018-12-12T11:13:26.069Z,2.62
2018-12-12T11:18:30.905Z,2.70
2018-12-12T11:23:36.905Z,3.22
2018-12-12T11:28:41.622Z,2.37
2018-12-12T11:33:50.502Z,1.95
2018-12-12T11:38:51.088Z,2.20
2018-12-12T11:43:56.260Z,2.47
2018-12-12T11:49:00.727Z,2.20
2018-12-12T11:54:07.074Z,2.12
2018-12-12T11:59:11.855Z,2.45
2018-12-12T12:04:16.682Z,2.10
2018-12-12T12:09:20.416Z,2.37
2018-12-12T12:14:25.422Z,3.10
2018-12-12T12:19:30.455Z,4.10
2018-12-12T12:24:35.547Z,3.60
2018-12-12T12:29:39.805Z,2.92
2018-12-12T12:34:44.853Z,2.60
2018-12-12T12:39:50.145Z,2.85
2018-12-12T12:44:54.728Z,3.10
2018-12-12T12:49:58.578Z,3.05
2018-12-12T12:55:03.421Z,3.60
2018-12-12T13:00:07.963Z,3.42
2018-12-12T13:05:11.572Z,4.62
2018-12-12T13:10:15.822Z,5.13
2018-12-12T13:15:21.178Z,4.67
2018-12-12T13:20:24.769Z,4.40
2018-12-12T13:25:29.371Z,4.23
2018-12-12T13:30:33.906Z,3.53
2018-12-12T13:35:38.299Z,3.03
2018-12-12T13:40:43.006Z,4.97
2018-12-12T13:45:46.623Z,2.77
2018-12-12T13:50:51.691Z,3.47
2018-12-12T13:55:56.619Z,2.93
2018-12-12T14:01:01.354Z,4.00
2018-12-12T14:06:04.762Z,3.33
2018-12-12T14:11:09.123Z,3.47
2018-12-12T14:16:13.147Z,3.53
2018-12-12T14:21:17.872Z,3.73
2018-12-12T14:26:22.668Z,3.17
2018-12-12T14:31:28.119Z,2.87
2018-12-12T14:36:33.254Z,2.90
2018-12-12T14:41:38.306Z,2.57
2018-12-12T14:46:42.509Z,2.60
2018-12-12T14:51:46.584Z,3.00
2018-12-12T14:56:51.746Z,3.07
2018-12-12T15:01:56.555Z,4.10
2018-12-12T15:07:01.153Z,3.93
2018-12-12T15:12:05.789Z,3.00
2018-12-12T15:17:09.988Z,2.67
2018-12-12T15:22:15.072Z,2.97
2018-12-12T15:27:19.191Z,3.17
2018-12-12T15:32:24.388Z,3.33
2018-12-12T15:37:30.131Z,3.90
2018-12-12T15:42:35.477Z,2.87
2018-12-12T15:47:40.571Z,3.67
2018-12-12T15:52:44.815Z,4.43
2018-12-12T15:57:49.957Z,3.60
2018-12-12T16:02:55.070Z,3.27
2018-12-12T16:07:59.715Z,3.77
2018-12-12T16:13:04.719Z,3.47
2018-12-12T16:18:08.830Z,2.97
2018-12-12T16:23:13.427Z,3.70
2018-12-12T16:28:17.391Z,3.40
2018-12-12T16:33:21.102Z,3.17
2018-12-12T16:38:25.481Z,3.20
2018-12-12T16:43:29.218Z,3.53
2018-12-12T16:48:33.075Z,4.73
2018-12-12T16:53:36.619Z,4.03
2018-12-12T16:58:40.936Z,4.00
2018-12-12T17:03:45.815Z,3.77
2018-12-12T17:08:51.919Z,4.07
2018-12-12T17:13:57.159Z,4.57
2018-12-12T17:19:01.705Z,3.97
2018-12-12T17:24:05.473Z,4.03
2018-12-12T17:29:09.113Z,4.20
2018-12-12T17:34:13.268Z,4.07
2018-12-12T17:39:17.564Z,4.90
2018-12-12T17:44:22.340Z,3.83
2018-12-12T17:49:27.867Z,6.23
2018-12-12T17:54:33.267Z,4.20
2018-12-12T17:59:36.814Z,4.47
2018-12-12T18:04:41.346Z,4.43
2018-12-12T18:09:45.938Z,3.93
2018-12-12T18:14:49.691Z,4.27
2018-12-12T18:19:53.353Z,4.07
2018-12-12T18:24:57.981Z,3.73
2018-12-12T18:30:02.002Z,3.87
2018-12-12T18:35:06.633Z,3.73
2018-12-12T18:40:10.171Z,4.90
2018-12-12T18:45:14.114Z,4.03
2018-12-12T18:50:17.783Z,3.77
2018-12-12T18:55:22.891Z,4.13
2018-12-12T19:00:27.702Z,3.57
2018-12-12T19:05:32.589Z,3.80
2018-12-12T19:10:38.101Z,4.30
2018-12-12T19:15:43.321Z,4.50
2018-12-12T19:20:48.184Z,3.63
2018-12-12T19:25:51.619Z,3.77
2018-12-12T19:30:55.404Z,4.50
2018-12-12T19:36:00.385Z,3.93
2018-12-12T19:41:05.006Z,5.07
2018-12-12T19:46:09.286Z,4.57
2018-12-12T19:51:14.166Z,4.10
2018-12-12T19:56:17.698Z,3.73
2018-12-12T20:01:23.139Z,5.00
2018-12-12T20:06:27.842Z,4.07
2018-12-12T20:11:32.324Z,4.80
2018-12-12T20:16:37.797Z,4.60
2018-12-12T20:21:42.948Z,7.33
2018-12-12T20:26:47.499Z,6.77
2018-12-12T20:31:52.518Z,7.17
2018-12-12T20:36:56.913Z,4.33
2018-12-12T20:42:00.508Z,4.80
2018-12-12T20:47:04.304Z,4.77
2018-12-12T20:52:07.946Z,5.40
2018-12-12T20:57:14.274Z,5.90
2018-12-12T21:02:18.545Z,4.70
2018-12-12T21:07:22.354Z,5.13
2018-12-12T21:12:26.107Z,4.30
2018-12-12T21:17:29.957Z,3.20
2018-12-12T21:22:36.016Z,3.80
2018-12-12T21:27:39.663Z,3.37
2018-12-12T21:32:44.528Z,3.70
2018-12-12T21:37:48.085Z,3.33
2018-12-12T21:42:51.794Z,3.43
2018-12-12T21:47:55.588Z,4.80
2018-12-12T21:52:59.412Z,4.37
2018-12-12T21:58:03.227Z,4.33
2018-12-12T22:03:06.756Z,4.73
2018-12-12T22:08:10.680Z,4.50
2018-12-12T22:13:14.589Z,4.80
2018-12-12T22:18:18.489Z,5.10
2018-12-12T22:23:22.303Z,4.73
2018-12-12T22:28:25.808Z,5.27
2018-12-12T22:33:29.415Z,4.90
2018-12-12T22:38:33.146Z,4.93
2018-12-12T22:43:37.145Z,4.60
2018-12-12T22:48:41.062Z,4.07
2018-12-12T22:53:45.013Z,5.20
2018-12-12T22:58:49.056Z,5.13
2018-12-12T23:03:52.805Z,5.17
2018-12-12T23:08:56.632Z,4.50
2018-12-12T23:14:00.235Z,5.17
2018-12-12T23:19:03.702Z,5.43
2018-12-12T23:24:08.862Z,5.50
2018-12-12T23:29:12.505Z,6.10
2018-12-12T23:34:16.794Z,5.43
2018-12-12T23:39:22.254Z,5.33
2018-12-12T23:44:25.755Z,5.73
2018-12-12T23:49:30.510Z,4.60
2018-12-12T23:54:35.448Z,4.23
2018-12-12T23:59:40.143Z,3.53
